createdAt,value
2017-03-07T00:07:23.114Z,0
2017-03-07T00:17:23.090Z,0
2017-03-07T00:27:22.979Z,0
2017-03-07T00:37:23.211Z,0
2017-03-07T00:47:23.159Z,0
2017-03-07T00:57:23.064Z,0
2017-03-07T01:07:22.957Z,0
2017-03-07T01:17:23.091Z,0
2017-03-07T01:27:23.293Z,0
2017-03-07T01:37:23.191Z,0
2017-03-07T01:47:22.944Z,0
2017-03-07T01:57:22.985Z,0
2017-03-07T02:07:23.090Z,0
2017-03-07T02:17:22.989Z,0
2017-03-07T02:27:22.967Z,0
2017-03-07T02:37:22.991Z,0
2017-03-07T02:47:22.938Z,0
2017-03-07T02:57:23.033Z,0
2017-03-07T03:07:22.912Z,0
2017-03-07T03:17:22.970Z,0
2017-03-07T03:27:22.991Z,0
2017-03-07T03:37:22.940Z,0
2017-03-07T03:47:22.919Z,0
2017-03-07T03:57:22.958Z,0
2017-03-07T04:07:22.964Z,0
2017-03-07T04:17:23.017Z,0
2017-03-07T04:27:22.944Z,0
2017-03-07T04:37:23.006Z,0
2017-03-07T04:47:22.994Z,0
2017-03-07T04:57:22.920Z,0
2017-03-07T05:07:23.064Z,0
2017-03-07T05:17:22.925Z,0
2017-03-07T05:27:22.921Z,0
2017-03-07T05:37:22.938Z,0
2017-03-07T05:47:22.935Z,0
2017-03-07T05:57:23.019Z,0
2017-03-07T06:07:22.878Z,0
2017-03-07T06:17:23.060Z,0
2017-03-07T06:27:23.027Z,5
2017-03-07T06:37:23.091Z,10
2017-03-07T06:47:22.898Z,30
2017-03-07T06:57:23.086Z,30
2017-03-07T07:07:22.902Z,45
2017-03-07T07:17:22.899Z,70
2017-03-07T07:27:22.935Z,45
2017-03-07T07:37:22.916Z,35
2017-03-07T07:47:23.026Z,50
2017-03-07T07:57:22.901Z,60
2017-03-07T08:07:22.874Z,65
2017-03-07T08:17:23.024Z,70
2017-03-07T08:27:22.918Z,165
2017-03-07T08:37:23.243Z,190
2017-03-07T08:47:25.786Z,155
2017-03-07T08:57:23.068Z,130
2017-03-07T09:07:22.888Z,160
2017-03-07T09:17:22.885Z,170
2017-03-07T09:27:23.027Z,130
2017-03-07T09:37:22.882Z,120
2017-03-07T09:47:22.917Z,115
2017-03-07T09:57:22.914Z,125
2017-03-07T10:07:23.042Z,120
2017-03-07T10:17:22.903Z,85
2017-03-07T10:27:23.003Z,60
2017-03-07T10:37:27.117Z,55
2017-03-07T10:47:23.010Z,55
2017-03-07T10:57:22.853Z,135
2017-03-07T11:07:22.934Z,115
2017-03-07T11:17:22.947Z,265
2017-03-07T11:27:22.921Z,315
2017-03-07T11:37:23.016Z,380
2017-03-07T11:47:22.893Z,140
2017-03-07T11:57:22.959Z,290
2017-03-07T12:07:23.003Z,250
2017-03-07T12:17:22.878Z,180
2017-03-07T12:27:22.930Z,100
2017-03-07T12:37:22.960Z,275
2017-03-07T12:47:22.955Z,325
2017-03-07T12:57:23.280Z,235
2017-03-07T13:07:22.911Z,175
2017-03-07T13:17:23.123Z,270
2017-03-07T13:27:22.846Z,110
2017-03-07T13:37:22.880Z,30
2017-03-07T13:47:24.453Z,60
2017-03-07T13:57:22.969Z,90
2017-03-07T14:07:22.940Z,190
2017-03-07T14:17:23.058Z,105
2017-03-07T14:27:22.949Z,135
2017-03-07T14:37:22.957Z,85
2017-03-07T14:47:22.995Z,160
2017-03-07T14:57:22.905Z,175
2017-03-07T15:07:22.875Z,170
2017-03-07T15:17:22.851Z,130
2017-03-07T15:27:22.900Z,130
2017-03-07T15:37:23.055Z,105
2017-03-07T15:47:22.878Z,90
2017-03-07T15:57:22.888Z,95
2017-03-07T16:07:23.004Z,95
2017-03-07T16:17:22.850Z,55
2017-03-07T16:27:22.836Z,30
2017-03-07T16:37:22.864Z,10
2017-03-07T16:47:22.882Z,5
2017-03-07T16:57:22.899Z,15
2017-03-07T17:07:23.046Z,5
2017-03-07T17:17:22.917Z,0
2017-03-07T17:27:22.851Z,0
2017-03-07T17:37:22.885Z,0
2017-03-07T17:47:22.904Z,0
2017-03-07T17:57:22.839Z,0
2017-03-07T18:07:22.812Z,0
2017-03-07T18:17:22.939Z,0
2017-03-07T18:27:22.942Z,0
2017-03-07T18:37:22.862Z,0
2017-03-07T18:47:22.804Z,0
2017-03-07T18:57:22.873Z,0
2017-03-07T19:07:22.822Z,0
2017-03-07T19:17:22.887Z,0
2017-03-07T19:27:22.807Z,0
2017-03-07T19:37:22.828Z,0
2017-03-07T19:47:22.782Z,0
2017-03-07T19:57:22.814Z,0
2017-03-07T20:07:22.840Z,0
2017-03-07T20:17:23.241Z,0
2017-03-07T20:27:22.838Z,0
2017-03-07T20:37:22.908Z,0
2017-03-07T20:47:22.846Z,0
2017-03-07T20:57:22.903Z,0
2017-03-07T21:07:22.887Z,0
2017-03-07T21:17:22.969Z,0
2017-03-07T21:27:22.827Z,0
2017-03-07T21:37:22.911Z,0
2017-03-07T21:47:22.953Z,0
2017-03-07T21:57:22.854Z,0
2017-03-07T22:07:23.019Z,0
2017-03-07T22:17:23.297Z,0
2017-03-07T22:27:22.911Z,0
2017-03-07T22:37:23.022Z,0
2017-03-07T22:47:22.934Z,0
2017-03-07T22:57:22.845Z,0
2017-03-07T23:07:24.091Z,0
2017-03-07T23:17:23.052Z,0
2017-03-07T23:27:22.802Z,0
2017-03-07T23:37:22.791Z,0
2017-03-07T23:47:22.845Z,0
2017-03-07T23:57:22.811Z,0
